Dai2kousei — JD2542 — position and weather

sailwx.info

Track history (hours):
 
Tides and Currents Weather Stations Pressure Air Temp Water Temp Dewpoint Dewpoint Depression Visibility Wind Speed Wind Dir Waves Ship Positions

Dai2kousei

Last reported at 2016-Sep-28 16:33 UTC. Time now 2016-Sep-28 17:09 UTC.
Position N 35°29' E 139°44'.

Length 77 m.

MMSI: 431000467.

Date/timePositionNaut miles runAvg speedWind from/ knotsBaromVisibWave heightAir tempDewpointWater temp
2016-Sep-28 16:33N 35°29' E 139°44'0 0.0
2016-Sep-28 15:33N 35°29' E 139°44'0 0.0
2016-Sep-28 12:33N 35°29' E 139°44'0 0.0
2016-Sep-28 08:33N 35°29' E 139°44'19 3.9
2016-Sep-28 03:33N 35°34' E 140°07'0 0.0
2016-Sep-28 02:33N 35°34' E 140°07'0 0.0
2016-Sep-28 01:33N 35°34' E 140°07'0 0.0
2016-Sep-27 23:33N 35°34' E 140°07'3 0.7
2016-Sep-27 19:33N 35°34' E 140°03'16 3.3
2016-Sep-27 14:33N 35°29' E 139°44'0 0.0
2016-Sep-27 13:33N 35°29' E 139°44'0 0.0
2016-Sep-27 10:33N 35°29' E 139°44'19 1.9
2016-Sep-27 00:33N 35°34' E 140°07'3 0.8
2016-Sep-26 20:33N 35°35' E 140°03'0 0.0
2016-Sep-26 19:33N 35°35' E 140°03'0 0.0
2016-Sep-26 15:33N 35°35' E 140°03'12 6.1
2016-Sep-26 13:33N 35°30' E 139°50'5 2.3
2016-Sep-26 11:33N 35°29' E 139°44'0 0.0
2016-Sep-26 08:33N 35°29' E 139°44'0 0.0
2016-Sep-26 02:33N 35°29' E 139°44'0 0.0
2016-Sep-26 01:33N 35°29' E 139°44'0 0.0
2016-Sep-26 00:33N 35°29' E 139°44'0 0.0
2016-Sep-25 21:33N 35°29' E 139°44'  
2016-Sep-21 05:33N 35°13' E 139°43'0 0.0
2016-Sep-21 03:30N 35°13' E 139°43'0 0.0
2016-Sep-21 02:33N 35°13' E 139°43'26 2.9
2016-Sep-20 17:32N 35°34' E 140°03'0 0.0
2016-Sep-20 14:33N 35°34' E 140°03'0 0.0
2016-Sep-20 13:33N 35°34' E 140°03'0 0.0
2016-Sep-20 10:33N 35°34' E 140°03'0 0.0
2016-Sep-20 08:33N 35°34' E 140°03'1 0.7
2016-Sep-20 07:33N 35°34' E 140°04'3 2.8
2016-Sep-20 06:33N 35°34' E 140°07'0 0.0
2016-Sep-20 02:34N 35°34' E 140°07'0 0.0
2016-Sep-19 23:34N 35°34' E 140°07'3 0.7
2016-Sep-19 19:33N 35°35' E 140°04'8 7.9
2016-Sep-19 18:34N 35°32' E 139°55'9 4.6
2016-Sep-19 16:34N 35°29' E 139°44'0 0.0
2016-Sep-19 14:33N 35°29' E 139°44'0 0.0
2016-Sep-19 13:34N 35°29' E 139°44'0 0.0
2016-Sep-19 12:34N 35°29' E 139°44'0 0.0
2016-Sep-19 11:33N 35°29' E 139°44'0 0.0
2016-Sep-19 09:33N 35°29' E 139°44'11 5.4
2016-Sep-19 07:33N 35°31' E 139°57'9 8.5
2016-Sep-19 06:34N 35°34' E 140°07'0 0.0
2016-Sep-19 03:33N 35°34' E 140°07'0 0.0
2016-Sep-19 02:33N 35°34' E 140°07'0 0.0
2016-Sep-19 00:34N 35°34' E 140°07'3 0.5
2016-Sep-18 19:33N 35°35' E 140°04'  
Track history (hours):
 
Tides and Currents Weather Stations Pressure Air Temp Water Temp Dewpoint Dewpoint Depression Visibility Wind Speed Wind Dir Waves Ship Positions

Dai2kousei

Last reported at 2016-Sep-28 16:33 UTC. Time now 2016-Sep-28 17:09 UTC.
Position N 35°29' E 139°44'.

Length 77 m.

MMSI: 431000467.

Date/timePositionNaut miles runAvg speedWind from/ knotsBaromVisibWave heightAir tempDewpointWater temp
2016-Sep-28 16:33N 35°29' E 139°44'0 0.0
2016-Sep-28 15:33N 35°29' E 139°44'0 0.0
2016-Sep-28 12:33N 35°29' E 139°44'0 0.0
2016-Sep-28 08:33N 35°29' E 139°44'19 3.9
2016-Sep-28 03:33N 35°34' E 140°07'0 0.0
2016-Sep-28 02:33N 35°34' E 140°07'0 0.0
2016-Sep-28 01:33N 35°34' E 140°07'0 0.0
2016-Sep-27 23:33N 35°34' E 140°07'3 0.7
2016-Sep-27 19:33N 35°34' E 140°03'16 3.3
2016-Sep-27 14:33N 35°29' E 139°44'0 0.0
2016-Sep-27 13:33N 35°29' E 139°44'0 0.0
2016-Sep-27 10:33N 35°29' E 139°44'19 1.9
2016-Sep-27 00:33N 35°34' E 140°07'3 0.8
2016-Sep-26 20:33N 35°35' E 140°03'0 0.0
2016-Sep-26 19:33N 35°35' E 140°03'0 0.0
2016-Sep-26 15:33N 35°35' E 140°03'12 6.1
2016-Sep-26 13:33N 35°30' E 139°50'5 2.3
2016-Sep-26 11:33N 35°29' E 139°44'0 0.0
2016-Sep-26 08:33N 35°29' E 139°44'0 0.0
2016-Sep-26 02:33N 35°29' E 139°44'0 0.0
2016-Sep-26 01:33N 35°29' E 139°44'0 0.0
2016-Sep-26 00:33N 35°29' E 139°44'0 0.0
2016-Sep-25 21:33N 35°29' E 139°44'  
2016-Sep-21 05:33N 35°13' E 139°43'0 0.0
2016-Sep-21 03:30N 35°13' E 139°43'0 0.0
2016-Sep-21 02:33N 35°13' E 139°43'26 2.9
2016-Sep-20 17:32N 35°34' E 140°03'0 0.0
2016-Sep-20 14:33N 35°34' E 140°03'0 0.0
2016-Sep-20 13:33N 35°34' E 140°03'0 0.0
2016-Sep-20 10:33N 35°34' E 140°03'0 0.0
2016-Sep-20 08:33N 35°34' E 140°03'1 0.7
2016-Sep-20 07:33N 35°34' E 140°04'3 2.8
2016-Sep-20 06:33N 35°34' E 140°07'0 0.0
2016-Sep-20 02:34N 35°34' E 140°07'0 0.0
2016-Sep-19 23:34N 35°34' E 140°07'3 0.7
2016-Sep-19 19:33N 35°35' E 140°04'8 7.9
2016-Sep-19 18:34N 35°32' E 139°55'9 4.6
2016-Sep-19 16:34N 35°29' E 139°44'0 0.0
2016-Sep-19 14:33N 35°29' E 139°44'0 0.0
2016-Sep-19 13:34N 35°29' E 139°44'0 0.0
2016-Sep-19 12:34N 35°29' E 139°44'0 0.0
2016-Sep-19 11:33N 35°29' E 139°44'0 0.0
2016-Sep-19 09:33N 35°29' E 139°44'11 5.4
2016-Sep-19 07:33N 35°31' E 139°57'9 8.5
2016-Sep-19 06:34N 35°34' E 140°07'0 0.0
2016-Sep-19 03:33N 35°34' E 140°07'0 0.0
2016-Sep-19 02:33N 35°34' E 140°07'0 0.0
2016-Sep-19 00:34N 35°34' E 140°07'3 0.5
2016-Sep-18 19:33N 35°35' E 140°04'  

Dump ship's entire track history